createdAt,value
2023-01-27T00:01:04.566Z,0.22
2023-01-27T00:03:32.418Z,0.07
2023-01-27T00:06:01.306Z,0.03
2023-01-27T00:08:30.638Z,0.13
2023-01-27T00:11:19.276Z,0.09
2023-01-27T00:13:47.058Z,0.05
2023-01-27T00:16:14.857Z,0.08
2023-01-27T00:18:42.821Z,0.05
2023-01-27T00:21:28.189Z,0.05
2023-01-27T00:24:14.906Z,0.06
2023-01-27T00:26:42.748Z,0.03
2023-01-27T00:29:10.443Z,-0.09
2023-01-27T00:31:55.772Z,-0.02
2023-01-27T00:34:26.843Z,-0.06
2023-01-27T00:36:55.674Z,-0.15
2023-01-27T00:39:24.741Z,-0.05
2023-01-27T00:41:52.367Z,-0.19
2023-01-27T00:44:20.550Z,-0.24
2023-01-27T00:46:51.091Z,-0.10
2023-01-27T00:49:19.115Z,-0.19
2023-01-27T00:51:47.469Z,-0.12
2023-01-27T00:54:15.508Z,-0.06
2023-01-27T00:56:45.057Z,-0.07
2023-01-27T00:59:12.762Z,-0.10
2023-01-27T01:01:40.984Z,-0.13
2023-01-27T01:04:08.709Z,-0.20
2023-01-27T01:06:36.555Z,-0.08
2023-01-27T01:09:05.259Z,-0.09
2023-01-27T01:11:33.182Z,-0.06
2023-01-27T01:14:02.311Z,-0.01
2023-01-27T01:19:20.131Z,-0.15
2023-01-27T01:21:47.841Z,-0.10
2023-01-27T01:24:16.133Z,-0.16
2023-01-27T01:26:43.951Z,-0.04
2023-01-27T01:29:13.032Z,-0.08
2023-01-27T01:31:40.774Z,-0.01
2023-01-27T01:34:08.606Z,-0.16
2023-01-27T01:36:36.372Z,-0.03
2023-01-27T01:39:04.349Z,0.07
2023-01-27T01:41:32.035Z,-0.02
2023-01-27T01:43:59.823Z,-0.02
2023-01-27T01:46:28.862Z,0.10
2023-01-27T01:48:59.629Z,0.00
2023-01-27T01:51:30.793Z,-0.01
2023-01-27T01:54:01.997Z,-0.03
2023-01-27T01:56:33.641Z,0.04
2023-01-27T01:59:05.328Z,0.04
2023-01-27T02:01:34.335Z,-0.01
2023-01-27T02:04:05.373Z,0.03
2023-01-27T02:06:38.804Z,-0.01
2023-01-27T02:09:07.141Z,-0.04
2023-01-27T02:11:35.003Z,0.02
2023-01-27T02:14:02.886Z,-0.06
2023-01-27T02:16:31.430Z,-0.06
2023-01-27T02:19:00.484Z,-0.09
2023-01-27T02:21:28.114Z,0.00
2023-01-27T02:23:58.407Z,0.13
2023-01-27T02:26:30.073Z,0.23
2023-01-27T02:28:59.700Z,0.06
2023-01-27T02:31:27.629Z,0.03
2023-01-27T02:33:59.061Z,0.03
2023-01-27T02:36:28.113Z,0.02
2023-01-27T02:38:57.388Z,0.06
2023-01-27T02:41:26.880Z,0.07
2023-01-27T02:43:56.751Z,0.03
2023-01-27T02:46:24.513Z,0.06
2023-01-27T02:48:52.446Z,0.15
2023-01-27T02:51:20.098Z,0.09
2023-01-27T02:53:47.762Z,0.04
2023-01-27T02:56:15.609Z,0.13
2023-01-27T02:58:43.230Z,0.05
2023-01-27T03:01:12.422Z,0.03
2023-01-27T03:03:44.000Z,0.07
2023-01-27T03:06:12.096Z,0.14
2023-01-27T03:08:40.191Z,0.02
2023-01-27T03:11:08.339Z,0.04
2023-01-27T03:13:42.265Z,0.10
2023-01-27T03:16:30.433Z,0.05
2023-01-27T03:18:58.120Z,0.19
2023-01-27T03:21:26.427Z,0.10
2023-01-27T03:23:54.216Z,-0.01
2023-01-27T03:26:21.933Z,0.18
2023-01-27T03:29:09.620Z,0.06
2023-01-27T03:31:38.945Z,0.14
2023-01-27T03:34:09.611Z,0.14
2023-01-27T03:36:55.189Z,0.16
2023-01-27T03:39:40.484Z,0.08
2023-01-27T03:42:25.795Z,0.04
2023-01-27T03:45:11.376Z,0.05
2023-01-27T03:47:40.954Z,-0.05
2023-01-27T03:50:13.859Z,0.03
2023-01-27T03:52:42.078Z,0.11
2023-01-27T03:55:11.425Z,0.08
2023-01-27T03:57:39.806Z,0.14
2023-01-27T04:00:09.936Z,0.11
2023-01-27T04:02:55.145Z,0.16
2023-01-27T04:05:41.824Z,0.07
2023-01-27T04:08:09.514Z,0.15
2023-01-27T04:10:37.163Z,0.10
2023-01-27T04:13:03.877Z,-0.09
2023-01-27T04:15:34.545Z,0.10
2023-01-27T04:18:02.265Z,0.04
2023-01-27T04:20:31.359Z,0.09
2023-01-27T04:22:59.005Z,0.07
2023-01-27T04:25:26.618Z,0.05
2023-01-27T04:27:54.276Z,0.11
2023-01-27T04:30:22.307Z,0.10
2023-01-27T04:32:50.058Z,0.03
2023-01-27T04:35:18.183Z,0.10
2023-01-27T04:37:47.986Z,0.08
2023-01-27T04:40:15.828Z,0.01
2023-01-27T04:42:43.519Z,0.13
2023-01-27T04:45:11.927Z,0.07
2023-01-27T04:47:39.836Z,0.06
2023-01-27T04:50:07.949Z,0.04
2023-01-27T04:52:35.658Z,0.09
2023-01-27T04:55:04.768Z,0.14
2023-01-27T04:57:32.436Z,0.14
2023-01-27T05:00:00.123Z,-0.02
2023-01-27T05:02:27.984Z,0.14
2023-01-27T05:04:55.627Z,0.21
2023-01-27T05:07:23.268Z,0.13
2023-01-27T05:09:53.671Z,0.14
2023-01-27T05:12:22.637Z,0.16
2023-01-27T05:14:52.518Z,0.20
2023-01-27T05:17:20.177Z,0.18
2023-01-27T05:19:47.927Z,0.20
2023-01-27T05:22:15.640Z,0.18
2023-01-27T05:24:43.401Z,0.05
2023-01-27T05:27:11.285Z,0.11
2023-01-27T05:29:40.265Z,0.08
2023-01-27T05:32:08.047Z,0.16
2023-01-27T05:34:35.796Z,0.16
2023-01-27T05:37:03.391Z,0.25
2023-01-27T05:39:30.993Z,0.15
2023-01-27T05:41:58.712Z,0.17
2023-01-27T05:44:26.528Z,0.09
2023-01-27T05:46:55.972Z,0.09
2023-01-27T05:49:23.652Z,0.06
2023-01-27T05:51:51.440Z,0.08
2023-01-27T05:54:19.098Z,0.20
2023-01-27T05:56:46.820Z,-0.01
2023-01-27T05:59:14.722Z,0.20
2023-01-27T06:01:42.522Z,0.15
2023-01-27T06:04:11.992Z,0.19
2023-01-27T06:06:39.721Z,0.17
2023-01-27T06:09:07.497Z,0.21
2023-01-27T06:11:35.165Z,0.37
2023-01-27T06:14:02.859Z,0.26
2023-01-27T06:16:30.551Z,0.17
2023-01-27T06:18:58.654Z,0.24
2023-01-27T06:21:27.609Z,0.01
2023-01-27T06:23:55.933Z,0.23
2023-01-27T06:26:23.694Z,0.27
2023-01-27T06:28:51.321Z,0.29
2023-01-27T06:31:21.789Z,0.34
2023-01-27T06:33:50.285Z,0.26
2023-01-27T06:36:20.477Z,0.19
2023-01-27T06:38:50.180Z,0.27
2023-01-27T06:41:17.889Z,0.38
2023-01-27T06:43:45.538Z,0.10
2023-01-27T06:46:13.275Z,0.38
2023-01-27T06:48:41.095Z,0.30
2023-01-27T06:51:08.928Z,0.35
2023-01-27T06:53:37.422Z,0.38
2023-01-27T06:56:07.612Z,0.38
2023-01-27T06:58:35.217Z,0.34
2023-01-27T07:01:05.124Z,0.46
2023-01-27T07:03:32.711Z,0.41
2023-01-27T07:06:00.442Z,0.38
2023-01-27T07:08:28.158Z,0.41
2023-01-27T07:10:55.764Z,0.43
2023-01-27T07:13:24.789Z,0.48
2023-01-27T07:15:55.969Z,0.45
2023-01-27T07:18:24.196Z,0.39
2023-01-27T07:20:51.808Z,0.46
2023-01-27T07:23:21.580Z,0.51
2023-01-27T07:25:49.347Z,0.47
2023-01-27T07:28:17.005Z,0.50
2023-01-27T07:30:46.139Z,0.49
2023-01-27T07:33:15.301Z,0.50
2023-01-27T07:35:43.032Z,0.49
2023-01-27T07:38:11.055Z,0.39
2023-01-27T07:40:38.698Z,0.45
2023-01-27T07:43:06.365Z,0.40
2023-01-27T07:45:34.088Z,0.56
2023-01-27T07:48:03.863Z,0.46
2023-01-27T07:50:31.588Z,0.46
2023-01-27T07:53:00.771Z,0.43
2023-01-27T07:55:29.796Z,0.49
2023-01-27T07:57:57.831Z,0.39
2023-01-27T08:00:26.138Z,0.46
2023-01-27T08:02:54.342Z,0.50
2023-01-27T08:05:23.576Z,0.48
2023-01-27T08:07:51.279Z,0.63
2023-01-27T08:10:19.627Z,0.46
2023-01-27T08:12:47.980Z,0.61
2023-01-27T08:15:18.684Z,0.30
2023-01-27T08:17:54.335Z,0.71
2023-01-27T08:20:23.599Z,0.57
2023-01-27T08:22:51.350Z,0.60
2023-01-27T08:25:21.762Z,0.59
2023-01-27T08:27:51.679Z,0.42
2023-01-27T08:30:20.196Z,0.63
2023-01-27T08:32:48.005Z,0.54
2023-01-27T08:35:16.211Z,0.62
2023-01-27T08:37:47.993Z,0.59
2023-01-27T08:40:16.439Z,0.62
2023-01-27T08:42:44.187Z,0.57
2023-01-27T08:45:12.065Z,0.61
2023-01-27T08:47:39.752Z,0.78
2023-01-27T08:50:08.235Z,0.83
2023-01-27T08:52:36.002Z,0.83
2023-01-27T08:55:05.662Z,0.83
2023-01-27T08:57:35.257Z,0.92
2023-01-27T09:00:06.274Z,0.82
2023-01-27T09:02:33.954Z,0.85
2023-01-27T09:05:01.585Z,0.96
2023-01-27T09:07:29.189Z,0.94
2023-01-27T09:10:12.796Z,1.16
2023-01-27T09:12:43.202Z,1.15
2023-01-27T09:15:11.587Z,1.19
2023-01-27T09:17:39.253Z,1.22
2023-01-27T09:20:07.676Z,1.16
2023-01-27T09:22:36.638Z,1.16
2023-01-27T09:25:04.546Z,1.18
2023-01-27T09:27:39.570Z,1.28
2023-01-27T09:30:11.140Z,1.26
2023-01-27T09:32:39.276Z,1.28
2023-01-27T09:35:07.674Z,1.24
2023-01-27T09:37:39.924Z,1.22
2023-01-27T09:40:13.333Z,1.33
2023-01-27T09:43:00.553Z,1.33
2023-01-27T09:45:38.679Z,1.41
2023-01-27T09:48:35.922Z,1.33
2023-01-27T09:51:07.276Z,1.46
2023-01-27T09:53:56.556Z,1.33
2023-01-27T09:56:33.471Z,1.35
2023-01-27T09:59:15.304Z,1.18
2023-01-27T10:01:54.224Z,1.42
2023-01-27T10:04:45.393Z,1.35
2023-01-27T10:07:28.070Z,1.37
2023-01-27T10:10:04.281Z,1.34
2023-01-27T10:12:44.595Z,1.34
2023-01-27T10:15:24.990Z,1.24
2023-01-27T10:18:02.270Z,1.42
2023-01-27T10:20:35.952Z,1.28
2023-01-27T10:23:12.132Z,1.41
2023-01-27T10:25:49.584Z,1.44
2023-01-27T10:28:22.498Z,1.44
2023-01-27T10:30:53.152Z,1.29
2023-01-27T10:33:23.490Z,1.45
2023-01-27T10:35:53.420Z,1.41
2023-01-27T10:38:35.955Z,1.50
2023-01-27T10:41:13.364Z,1.20
2023-01-27T10:43:50.110Z,1.51
2023-01-27T10:46:24.530Z,1.59
2023-01-27T10:48:52.915Z,1.51
2023-01-27T10:51:35.973Z,1.61
2023-01-27T10:54:11.121Z,1.62
2023-01-27T10:56:44.027Z,1.40
2023-01-27T11:04:16.641Z,1.68
2023-01-27T11:06:47.148Z,1.65
2023-01-27T11:09:25.769Z,1.80
2023-01-27T11:11:54.707Z,1.64
2023-01-27T11:14:27.391Z,1.65
2023-01-27T11:16:57.900Z,1.53
2023-01-27T11:19:32.687Z,1.58
2023-01-27T11:24:33.997Z,1.68
2023-01-27T11:27:06.393Z,1.64
2023-01-27T11:29:39.084Z,1.51
2023-01-27T11:32:17.106Z,1.83
2023-01-27T11:34:47.857Z,1.74
2023-01-27T11:37:19.453Z,1.80
2023-01-27T11:39:49.015Z,1.89
2023-01-27T11:42:17.313Z,1.60
2023-01-27T11:44:45.561Z,1.65
2023-01-27T11:47:22.988Z,1.79
2023-01-27T11:49:52.283Z,1.75
2023-01-27T11:52:22.290Z,1.84
2023-01-27T11:54:55.349Z,1.79
2023-01-27T11:57:25.065Z,1.85
2023-01-27T11:59:56.180Z,1.90
2023-01-27T12:02:29.205Z,1.86
2023-01-27T12:05:03.895Z,1.79
2023-01-27T12:07:39.760Z,1.82
2023-01-27T12:10:23.262Z,1.97
2023-01-27T12:12:54.066Z,1.97
2023-01-27T12:15:21.743Z,1.93
2023-01-27T12:17:51.853Z,2.03
2023-01-27T12:20:40.491Z,2.05
2023-01-27T12:23:17.608Z,2.12
2023-01-27T12:25:52.000Z,2.21
2023-01-27T12:28:28.968Z,2.27
2023-01-27T12:30:59.150Z,2.19
2023-01-27T12:33:30.912Z,2.20
2023-01-27T12:36:01.116Z,2.14
2023-01-27T12:38:32.142Z,2.32
2023-01-27T12:41:03.876Z,2.37
2023-01-27T12:43:31.720Z,2.35
2023-01-27T12:46:06.045Z,2.24
2023-01-27T12:48:36.263Z,2.30
2023-01-27T12:51:10.912Z,2.29
2023-01-27T12:53:39.857Z,2.30
2023-01-27T12:56:13.521Z,2.39
2023-01-27T12:58:42.678Z,2.39
2023-01-27T13:01:23.245Z,2.34
2023-01-27T13:03:53.658Z,2.44
2023-01-27T13:06:28.684Z,2.34
2023-01-27T13:08:56.454Z,2.44
2023-01-27T13:11:34.819Z,2.33
2023-01-27T13:14:02.662Z,2.36
2023-01-27T13:16:31.652Z,2.30
2023-01-27T13:19:00.804Z,2.26
2023-01-27T13:21:32.540Z,2.29
2023-01-27T13:24:00.533Z,2.36
2023-01-27T13:26:31.882Z,2.15
2023-01-27T13:29:04.362Z,2.25
2023-01-27T13:31:42.198Z,2.24
2023-01-27T13:34:17.177Z,2.31
2023-01-27T13:36:48.234Z,2.31
2023-01-27T13:39:19.827Z,2.21
2023-01-27T13:41:53.034Z,2.22
2023-01-27T13:44:27.151Z,2.41
2023-01-27T13:46:55.710Z,2.37
2023-01-27T13:49:31.809Z,2.33
2023-01-27T13:51:59.522Z,2.23
2023-01-27T13:54:29.991Z,2.39
2023-01-27T13:57:07.075Z,2.35
2023-01-27T13:59:41.397Z,2.31
2023-01-27T14:02:30.972Z,2.41
2023-01-27T14:05:16.584Z,2.34
2023-01-27T14:07:48.655Z,2.27
2023-01-27T14:10:20.138Z,2.37
2023-01-27T14:13:03.189Z,2.41
2023-01-27T14:15:36.049Z,2.26
2023-01-27T14:18:11.678Z,2.31
2023-01-27T14:20:49.960Z,2.37
2023-01-27T14:23:26.581Z,2.22
2023-01-27T14:26:02.473Z,2.37
2023-01-27T14:28:38.071Z,2.23
2023-01-27T14:31:11.099Z,2.21
2023-01-27T14:33:50.471Z,2.26
2023-01-27T14:36:21.424Z,2.36
2023-01-27T14:38:56.355Z,2.38
2023-01-27T14:41:28.818Z,2.39
2023-01-27T14:44:02.701Z,2.31
2023-01-27T14:46:43.434Z,2.28
2023-01-27T14:49:17.162Z,2.34
2023-01-27T14:51:50.197Z,2.37
2023-01-27T14:54:29.928Z,2.34
2023-01-27T14:57:18.033Z,2.32
2023-01-27T14:59:55.078Z,2.28
2023-01-27T15:02:36.830Z,2.21
2023-01-27T15:05:08.756Z,2.25
2023-01-27T15:07:42.535Z,2.24
2023-01-27T15:10:20.287Z,2.40
2023-01-27T15:13:29.228Z,2.42
2023-01-27T15:16:11.008Z,2.35
2023-01-27T15:18:52.929Z,2.38
2023-01-27T15:21:32.101Z,2.37
2023-01-27T15:24:18.170Z,2.29
2023-01-27T15:26:47.598Z,2.12
2023-01-27T15:29:16.077Z,2.32
2023-01-27T15:32:11.892Z,2.38
2023-01-27T15:34:39.998Z,2.36
2023-01-27T15:37:14.868Z,2.31
2023-01-27T15:40:04.336Z,2.28
2023-01-27T15:42:52.268Z,2.37
2023-01-27T15:45:30.559Z,2.38
2023-01-27T15:50:37.522Z,2.30
2023-01-27T15:53:12.907Z,2.34
2023-01-27T15:55:49.287Z,2.24
2023-01-27T15:58:24.309Z,2.26
2023-01-27T16:00:53.173Z,2.14
2023-01-27T16:03:25.231Z,2.37
2023-01-27T16:05:57.197Z,2.27
2023-01-27T16:08:25.735Z,2.32
2023-01-27T16:10:53.505Z,2.31
2023-01-27T16:13:24.271Z,2.31
2023-01-27T16:16:29.287Z,2.32
2023-01-27T16:19:04.701Z,2.27
2023-01-27T16:21:41.366Z,2.36
2023-01-27T16:24:15.048Z,2.30
2023-01-27T16:26:45.432Z,2.33
2023-01-27T16:29:26.687Z,2.32
2023-01-27T16:32:00.237Z,2.32
2023-01-27T16:34:35.502Z,2.33
2023-01-27T16:37:10.198Z,2.37
2023-01-27T16:39:45.628Z,2.33
2023-01-27T16:42:15.799Z,2.25
2023-01-27T16:44:45.781Z,2.34
2023-01-27T16:47:20.742Z,2.35
2023-01-27T16:49:51.156Z,2.17
2023-01-27T16:52:24.702Z,2.19
2023-01-27T16:54:58.730Z,2.19
2023-01-27T16:57:33.749Z,2.30
2023-01-27T17:00:06.741Z,2.24
2023-01-27T17:02:35.220Z,2.26
2023-01-27T17:05:06.509Z,2.35
2023-01-27T17:07:34.689Z,2.25
2023-01-27T17:10:10.397Z,2.35
2023-01-27T17:12:43.166Z,2.24
2023-01-27T17:15:19.072Z,2.36
2023-01-27T17:17:47.319Z,2.41
2023-01-27T17:20:24.923Z,2.32
2023-01-27T17:22:54.341Z,2.41
2023-01-27T17:25:32.075Z,2.28
2023-01-27T17:28:01.336Z,2.40
2023-01-27T17:30:34.335Z,2.21
2023-01-27T17:33:02.982Z,2.26
2023-01-27T17:35:33.874Z,2.34
2023-01-27T17:38:14.820Z,2.25
2023-01-27T17:40:45.701Z,2.24
2023-01-27T17:43:27.648Z,2.31
2023-01-27T17:46:12.153Z,2.09
2023-01-27T17:48:41.712Z,2.14
2023-01-27T17:51:12.868Z,2.28
2023-01-27T17:53:42.387Z,2.19
2023-01-27T17:56:16.331Z,2.19
2023-01-27T17:58:46.022Z,2.08
2023-01-27T18:01:15.117Z,2.23
2023-01-27T18:03:42.881Z,2.22
2023-01-27T18:06:14.662Z,2.24
2023-01-27T18:08:50.324Z,2.34
2023-01-27T18:11:24.127Z,2.21
2023-01-27T18:13:53.776Z,2.17
2023-01-27T18:16:23.536Z,2.26
2023-01-27T18:18:51.805Z,2.25
2023-01-27T18:21:23.997Z,2.38
2023-01-27T18:23:55.456Z,2.31
2023-01-27T18:26:25.990Z,2.00
2023-01-27T18:28:56.190Z,2.23
2023-01-27T18:31:26.616Z,2.22
2023-01-27T18:34:00.622Z,2.36
2023-01-27T18:36:35.365Z,2.31
2023-01-27T18:39:04.235Z,2.35
2023-01-27T18:41:35.366Z,2.33
2023-01-27T18:44:03.080Z,2.24
2023-01-27T18:46:31.328Z,2.22
2023-01-27T18:49:02.595Z,2.22
2023-01-27T18:51:32.484Z,2.35
2023-01-27T18:54:00.116Z,2.33
2023-01-27T18:56:27.741Z,2.22
2023-01-27T18:58:55.958Z,2.20
2023-01-27T19:01:24.977Z,2.22
2023-01-27T19:03:56.964Z,2.19
2023-01-27T19:06:26.308Z,2.25
2023-01-27T19:08:55.248Z,2.32
2023-01-27T19:11:22.927Z,2.23
2023-01-27T19:13:50.581Z,2.17
2023-01-27T19:16:19.151Z,2.15
2023-01-27T19:18:46.847Z,2.11
2023-01-27T19:21:16.539Z,2.12
2023-01-27T19:23:45.843Z,2.18
2023-01-27T19:26:18.510Z,2.19
2023-01-27T19:28:47.611Z,2.23
2023-01-27T19:31:15.662Z,2.25
2023-01-27T19:33:45.002Z,2.14
2023-01-27T19:36:22.530Z,2.22
2023-01-27T19:38:51.181Z,2.28
2023-01-27T19:41:20.267Z,2.15
2023-01-27T19:43:49.982Z,2.20
2023-01-27T19:46:21.743Z,2.04
2023-01-27T19:48:50.196Z,2.28
2023-01-27T19:51:18.952Z,2.18
2023-01-27T19:53:46.660Z,2.18
2023-01-27T19:56:17.431Z,2.16
2023-01-27T19:58:49.915Z,1.96
2023-01-27T20:01:17.895Z,2.13
2023-01-27T20:03:45.705Z,2.09
2023-01-27T20:06:17.663Z,2.05
2023-01-27T20:08:45.651Z,2.19
2023-01-27T20:11:35.346Z,2.06
2023-01-27T20:14:05.910Z,2.08
2023-01-27T20:16:34.311Z,2.18
2023-01-27T20:19:01.972Z,2.08
2023-01-27T20:21:31.352Z,2.19
2023-01-27T20:23:59.464Z,2.11
2023-01-27T20:26:29.411Z,2.09
2023-01-27T20:28:57.249Z,2.17
2023-01-27T20:31:26.697Z,2.18
2023-01-27T20:33:54.634Z,2.23
2023-01-27T20:36:24.284Z,2.16
2023-01-27T20:38:52.961Z,2.23
2023-01-27T20:41:23.060Z,2.16
2023-01-27T20:43:55.746Z,2.15
2023-01-27T20:46:23.486Z,2.24
2023-01-27T20:48:53.500Z,2.10
2023-01-27T20:51:21.196Z,2.26
2023-01-27T20:53:49.337Z,2.08
2023-01-27T20:56:19.237Z,1.94
2023-01-27T20:58:47.654Z,2.02
2023-01-27T21:01:19.549Z,2.12
2023-01-27T21:03:50.373Z,2.09
2023-01-27T21:06:20.420Z,2.10
2023-01-27T21:08:49.544Z,2.12
2023-01-27T21:11:22.954Z,2.16
2023-01-27T21:13:52.923Z,2.03
2023-01-27T21:16:20.674Z,2.09
2023-01-27T21:18:49.099Z,2.06
2023-01-27T21:21:27.175Z,2.06
2023-01-27T21:23:55.176Z,2.08
2023-01-27T21:26:23.742Z,2.09
2023-01-27T21:28:54.578Z,2.04
2023-01-27T21:31:24.263Z,2.13
2023-01-27T21:33:53.399Z,2.11
2023-01-27T21:36:21.994Z,2.03
2023-01-27T21:38:53.748Z,2.04
2023-01-27T21:41:40.633Z,2.10
2023-01-27T21:44:34.416Z,1.99
2023-01-27T21:47:05.259Z,1.98
2023-01-27T21:49:55.321Z,2.10
2023-01-27T21:52:23.212Z,2.03
2023-01-27T21:54:53.320Z,2.05
2023-01-27T21:57:21.723Z,2.08
2023-01-27T21:59:49.856Z,2.09
2023-01-27T22:02:17.972Z,2.01
2023-01-27T22:04:46.802Z,1.98
2023-01-27T22:07:16.069Z,2.01
2023-01-27T22:09:44.029Z,2.02
2023-01-27T22:12:14.701Z,2.17
2023-01-27T22:14:42.594Z,2.07
2023-01-27T22:17:10.361Z,2.06
2023-01-27T22:19:39.095Z,2.07
2023-01-27T22:22:07.835Z,1.99
2023-01-27T22:27:10.223Z,1.86
2023-01-27T22:29:40.332Z,1.90
2023-01-27T22:32:07.959Z,1.88
2023-01-27T22:34:35.562Z,2.00
2023-01-27T22:37:03.695Z,1.97
2023-01-27T22:39:31.563Z,1.99
2023-01-27T22:41:59.187Z,1.92
2023-01-27T22:44:26.825Z,1.87
2023-01-27T22:46:55.899Z,1.82
2023-01-27T22:49:23.558Z,1.82
2023-01-27T22:51:51.350Z,1.81
2023-01-27T22:54:19.031Z,1.79
2023-01-27T22:56:46.949Z,1.87
2023-01-27T22:59:14.758Z,1.78
2023-01-27T23:01:42.452Z,1.89
2023-01-27T23:04:13.346Z,1.81
2023-01-27T23:06:40.975Z,1.87
2023-01-27T23:09:08.657Z,1.86
2023-01-27T23:11:36.372Z,1.76
2023-01-27T23:14:04.176Z,1.77
2023-01-27T23:16:32.150Z,1.67
2023-01-27T23:18:59.916Z,1.75
2023-01-27T23:21:29.541Z,1.74
2023-01-27T23:23:57.147Z,1.70
2023-01-27T23:26:25.031Z,1.76
2023-01-27T23:28:52.704Z,1.69
2023-01-27T23:31:20.465Z,1.76
2023-01-27T23:33:49.200Z,1.77
2023-01-27T23:36:16.907Z,1.77
2023-01-27T23:38:48.303Z,1.73
2023-01-27T23:41:18.312Z,1.69
2023-01-27T23:43:46.205Z,1.69
2023-01-27T23:46:14.552Z,1.74
2023-01-27T23:48:42.216Z,1.76
2023-01-27T23:51:10.705Z,1.79
2023-01-27T23:53:38.260Z,1.78
2023-01-27T23:56:08.331Z,1.69
2023-01-27T23:58:35.900Z,1.55
